createdAt,value
2023-06-30T00:01:49.937Z,45.92
2023-06-30T00:05:34.824Z,46.34
2023-06-30T00:09:17.694Z,46.63
2023-06-30T00:13:00.413Z,47.10
2023-06-30T00:16:43.175Z,47.47
2023-06-30T00:20:25.861Z,48.07
2023-06-30T00:24:10.046Z,48.84
2023-06-30T00:27:52.797Z,49.04
2023-06-30T00:31:40.763Z,49.47
2023-06-30T00:35:23.569Z,49.75
2023-06-30T00:39:06.334Z,49.57
2023-06-30T00:42:50.440Z,50.03
2023-06-30T00:46:33.276Z,50.41
2023-06-30T00:50:16.205Z,51.10
2023-06-30T00:53:59.102Z,51.25
2023-06-30T00:57:41.768Z,51.73
2023-06-30T01:01:31.390Z,52.35
2023-06-30T01:05:19.722Z,52.69
2023-06-30T01:09:05.134Z,53.58
2023-06-30T01:12:48.136Z,53.80
2023-06-30T01:16:32.661Z,54.71
2023-06-30T01:20:17.088Z,54.93
2023-06-30T01:24:04.059Z,54.94
2023-06-30T01:27:47.066Z,55.70
2023-06-30T01:31:32.730Z,56.35
2023-06-30T01:35:16.841Z,57.68
2023-06-30T01:38:59.513Z,57.86
2023-06-30T01:42:42.394Z,57.79
2023-06-30T01:46:25.160Z,57.83
2023-06-30T01:50:08.607Z,58.67
2023-06-30T01:53:52.733Z,59.27
2023-06-30T01:57:35.594Z,59.72
2023-06-30T02:01:18.330Z,59.79
2023-06-30T02:05:01.080Z,59.65
2023-06-30T02:08:43.881Z,60.08
2023-06-30T02:12:30.894Z,60.40
2023-06-30T02:16:13.680Z,60.91
2023-06-30T02:19:56.397Z,61.18
2023-06-30T02:23:39.065Z,61.46
2023-06-30T02:27:21.834Z,61.55
2023-06-30T02:31:06.186Z,62.32
2023-06-30T02:34:48.920Z,62.57
2023-06-30T02:38:31.758Z,62.65
2023-06-30T02:42:14.477Z,62.80
2023-06-30T02:45:57.205Z,63.03
2023-06-30T02:49:41.304Z,62.72
2023-06-30T02:53:24.012Z,63.03
2023-06-30T02:57:06.985Z,63.35
2023-06-30T03:00:50.418Z,63.45
2023-06-30T03:04:33.309Z,63.59
2023-06-30T03:08:17.425Z,63.60
2023-06-30T03:12:00.125Z,63.74
2023-06-30T03:15:43.147Z,63.92
2023-06-30T03:19:26.172Z,64.25
2023-06-30T03:23:08.856Z,64.97
2023-06-30T03:26:52.915Z,64.85
2023-06-30T03:30:35.628Z,65.40
2023-06-30T03:34:18.359Z,65.86
2023-06-30T03:38:01.045Z,66.09
2023-06-30T03:41:43.812Z,67.02
2023-06-30T03:45:27.890Z,67.62
2023-06-30T03:49:10.605Z,67.21
2023-06-30T03:52:53.292Z,67.44
2023-06-30T03:56:35.944Z,67.73
2023-06-30T04:00:19.386Z,67.75
2023-06-30T04:04:04.048Z,67.00
2023-06-30T04:07:47.148Z,66.87
2023-06-30T04:11:29.904Z,67.46
2023-06-30T04:15:12.758Z,68.91
2023-06-30T04:18:56.104Z,69.29
2023-06-30T04:22:40.636Z,70.09
2023-06-30T04:26:23.341Z,71.06
2023-06-30T04:30:07.587Z,72.82
2023-06-30T04:33:50.612Z,73.58
2023-06-30T04:37:33.421Z,73.82
2023-06-30T04:41:17.794Z,75.26
2023-06-30T04:45:00.508Z,77.12
2023-06-30T04:48:43.304Z,77.71
2023-06-30T04:52:26.024Z,78.08
2023-06-30T04:56:08.737Z,78.72
2023-06-30T04:59:53.135Z,79.24
2023-06-30T05:03:35.926Z,79.04
2023-06-30T05:07:18.778Z,78.47
2023-06-30T05:11:01.819Z,78.31
2023-06-30T05:14:44.626Z,78.14
2023-06-30T05:18:28.726Z,77.48
2023-06-30T05:22:11.433Z,77.41
2023-06-30T05:25:54.166Z,77.67
2023-06-30T05:29:36.910Z,78.68
2023-06-30T05:33:19.635Z,79.60
2023-06-30T05:37:06.673Z,79.26
2023-06-30T05:40:49.495Z,78.43
2023-06-30T05:44:32.331Z,77.30
2023-06-30T05:48:15.118Z,77.01
2023-06-30T05:51:58.837Z,77.60
2023-06-30T05:55:43.145Z,77.60
2023-06-30T05:59:29.084Z,77.35
2023-06-30T06:03:12.015Z,77.86
2023-06-30T06:06:54.928Z,78.22
2023-06-30T06:10:37.674Z,77.64
2023-06-30T06:14:21.986Z,77.81
2023-06-30T06:18:04.962Z,77.31
2023-06-30T06:21:47.752Z,77.74
2023-06-30T06:25:30.461Z,77.44
2023-06-30T06:29:15.591Z,77.61
2023-06-30T06:32:59.758Z,77.41
2023-06-30T06:36:42.523Z,77.55
2023-06-30T06:40:25.466Z,77.56
2023-06-30T06:44:08.311Z,78.27
2023-06-30T06:48:24.048Z,78.56
2023-06-30T06:52:07.343Z,77.92
2023-06-30T06:55:50.770Z,77.91
2023-06-30T06:59:33.456Z,78.80
2023-06-30T07:03:16.580Z,79.80
2023-06-30T07:07:00.736Z,80.48
2023-06-30T07:10:44.692Z,81.51
2023-06-30T07:14:27.406Z,82.41
2023-06-30T07:18:10.272Z,82.78
2023-06-30T07:21:53.305Z,83.40
2023-06-30T07:25:37.388Z,82.86
2023-06-30T07:29:20.066Z,82.13
2023-06-30T07:33:02.797Z,83.11
2023-06-30T07:36:45.528Z,83.63
2023-06-30T07:40:32.668Z,84.07
2023-06-30T07:44:22.446Z,86.01
2023-06-30T07:48:05.947Z,85.27
2023-06-30T07:51:48.850Z,86.46
2023-06-30T07:55:33.757Z,85.51
2023-06-30T07:59:16.523Z,85.19
2023-06-30T08:03:00.837Z,83.20
2023-06-30T08:06:43.690Z,83.05
2023-06-30T08:10:26.424Z,81.34
2023-06-30T08:14:09.144Z,83.05
2023-06-30T08:17:56.888Z,81.17
2023-06-30T08:21:41.605Z,76.86
2023-06-30T08:25:24.987Z,74.44
2023-06-30T08:29:07.711Z,73.16
2023-06-30T08:32:50.497Z,72.61
2023-06-30T08:36:33.956Z,72.34
2023-06-30T08:40:21.351Z,72.41
2023-06-30T08:44:04.740Z,72.44
2023-06-30T08:47:47.651Z,71.14
2023-06-30T08:51:30.937Z,71.54
2023-06-30T08:55:13.832Z,70.82
2023-06-30T08:58:57.907Z,69.66
2023-06-30T09:02:41.223Z,70.49
2023-06-30T09:06:24.184Z,70.41
2023-06-30T09:10:10.280Z,70.76
2023-06-30T09:13:54.239Z,71.13
2023-06-30T09:17:38.377Z,71.06
2023-06-30T09:21:24.269Z,69.60
2023-06-30T09:25:42.029Z,68.94
2023-06-30T09:29:25.828Z,68.23
2023-06-30T09:33:10.370Z,67.82
2023-06-30T09:36:53.990Z,67.06
2023-06-30T09:40:36.736Z,66.99
2023-06-30T09:44:21.579Z,66.04
2023-06-30T09:48:07.797Z,66.44
2023-06-30T09:51:52.180Z,66.16
2023-06-30T09:55:34.871Z,66.21
2023-06-30T09:59:18.238Z,64.89
2023-06-30T10:03:05.220Z,63.69
2023-06-30T10:06:49.133Z,64.61
2023-06-30T10:10:33.285Z,64.78
2023-06-30T10:14:16.915Z,65.12
2023-06-30T10:18:00.577Z,65.50
2023-06-30T10:21:43.347Z,66.22
2023-06-30T10:25:27.285Z,66.01
2023-06-30T10:29:11.464Z,66.87
2023-06-30T10:32:55.363Z,67.86
2023-06-30T10:36:39.097Z,66.70
2023-06-30T10:40:30.325Z,69.68
2023-06-30T10:44:14.442Z,71.15
2023-06-30T10:47:57.388Z,72.16
2023-06-30T10:51:40.220Z,80.73
2023-06-30T10:55:23.976Z,86.69
2023-06-30T10:59:07.046Z,90.60
2023-06-30T11:02:52.009Z,90.96
2023-06-30T11:06:37.493Z,93.35
2023-06-30T11:10:38.885Z,92.00
2023-06-30T11:14:34.278Z,91.47
2023-06-30T11:18:21.952Z,88.72
2023-06-30T11:22:23.412Z,88.75
2023-06-30T11:26:14.257Z,84.40
2023-06-30T11:30:00.360Z,82.47
2023-06-30T11:33:45.471Z,79.68
2023-06-30T11:37:28.651Z,76.20
2023-06-30T11:41:11.447Z,77.06
2023-06-30T11:44:54.159Z,76.34
2023-06-30T11:48:41.204Z,75.61
2023-06-30T11:52:25.274Z,73.74
2023-06-30T11:56:08.091Z,70.08
2023-06-30T11:59:50.798Z,69.86
2023-06-30T12:03:33.621Z,70.09
2023-06-30T12:07:16.974Z,66.96
2023-06-30T12:11:02.499Z,64.89
2023-06-30T12:14:46.011Z,64.71
2023-06-30T12:18:37.882Z,64.63
2023-06-30T12:22:27.105Z,64.21
2023-06-30T12:26:11.593Z,61.67
2023-06-30T12:29:54.586Z,61.88
2023-06-30T12:33:38.381Z,61.27
2023-06-30T12:37:21.298Z,63.95
2023-06-30T12:41:04.498Z,63.36
2023-06-30T12:44:48.595Z,64.96
2023-06-30T12:48:31.835Z,64.06
2023-06-30T12:52:16.754Z,65.12
2023-06-30T12:55:59.560Z,66.39
2023-06-30T12:59:43.869Z,66.11
2023-06-30T13:03:29.401Z,65.95
2023-06-30T13:07:12.187Z,66.47
2023-06-30T13:10:56.222Z,63.50
2023-06-30T13:14:38.953Z,61.93
2023-06-30T13:18:21.728Z,62.19
2023-06-30T13:22:06.082Z,59.13
2023-06-30T13:25:49.627Z,58.07
2023-06-30T13:29:33.037Z,57.11
2023-06-30T13:33:15.883Z,57.48
2023-06-30T13:37:01.672Z,58.80
2023-06-30T13:40:46.102Z,59.25
2023-06-30T13:44:31.040Z,59.68
2023-06-30T13:48:14.037Z,61.04
2023-06-30T13:51:56.915Z,61.22
2023-06-30T13:55:39.691Z,61.99
2023-06-30T13:59:23.836Z,64.33
2023-06-30T14:03:06.656Z,68.16
2023-06-30T14:06:49.438Z,70.15
2023-06-30T14:10:32.458Z,74.16
2023-06-30T14:14:15.391Z,78.23
2023-06-30T14:17:59.578Z,80.80
2023-06-30T14:21:42.647Z,82.31
2023-06-30T14:25:26.232Z,84.55
2023-06-30T14:29:08.911Z,84.06
2023-06-30T14:32:51.686Z,85.18
2023-06-30T14:36:35.859Z,85.83
2023-06-30T14:40:19.483Z,83.44
2023-06-30T14:44:02.213Z,84.09
2023-06-30T14:47:44.951Z,88.45
2023-06-30T14:51:27.686Z,93.42
2023-06-30T14:55:12.084Z,97.28
2023-06-30T14:58:56.087Z,97.49
2023-06-30T15:02:38.971Z,93.46
2023-06-30T15:06:21.668Z,86.41
2023-06-30T15:10:04.915Z,85.12
2023-06-30T15:13:48.960Z,86.09
2023-06-30T15:17:32.057Z,83.23
2023-06-30T15:21:14.838Z,83.61
2023-06-30T15:24:58.070Z,85.29
2023-06-30T15:28:40.765Z,84.11
2023-06-30T15:32:24.977Z,85.62
2023-06-30T15:36:07.666Z,85.01
2023-06-30T15:39:50.398Z,84.82
2023-06-30T15:43:33.153Z,85.93
2023-06-30T15:47:15.927Z,85.52
2023-06-30T15:50:59.986Z,85.16
2023-06-30T15:54:42.714Z,84.82
2023-06-30T15:58:25.595Z,82.46
2023-06-30T16:02:08.336Z,82.56
2023-06-30T16:05:51.316Z,82.41
2023-06-30T16:09:35.413Z,82.98
2023-06-30T16:13:18.156Z,86.61
2023-06-30T16:17:03.104Z,87.04
2023-06-30T16:20:45.949Z,88.08
2023-06-30T16:24:28.615Z,88.24
2023-06-30T16:28:12.757Z,88.58
2023-06-30T16:31:55.656Z,89.63
2023-06-30T16:35:38.424Z,90.10
2023-06-30T16:39:21.097Z,90.99
2023-06-30T16:43:03.785Z,92.21
2023-06-30T16:46:47.873Z,92.21
2023-06-30T16:50:30.637Z,89.39
2023-06-30T16:54:13.326Z,90.25
2023-06-30T16:57:56.048Z,84.94
2023-06-30T17:01:41.761Z,87.56
2023-06-30T17:05:26.289Z,88.84
2023-06-30T17:09:09.046Z,88.99
2023-06-30T17:12:51.710Z,88.33
2023-06-30T17:16:34.522Z,87.91
2023-06-30T17:20:17.416Z,87.94
2023-06-30T17:24:01.591Z,87.66
2023-06-30T17:27:44.376Z,87.21
2023-06-30T17:31:27.240Z,86.93
2023-06-30T17:35:10.531Z,86.81
2023-06-30T17:38:55.087Z,87.06
2023-06-30T17:42:39.162Z,88.06
2023-06-30T17:46:21.924Z,87.92
2023-06-30T17:50:04.992Z,87.59
2023-06-30T17:53:47.721Z,88.49
2023-06-30T17:57:30.428Z,87.09
2023-06-30T18:01:14.521Z,87.16
2023-06-30T18:04:58.015Z,87.13
2023-06-30T18:08:40.881Z,88.56
2023-06-30T18:12:23.585Z,89.42
2023-06-30T18:16:06.644Z,88.34
2023-06-30T18:19:50.972Z,91.43
2023-06-30T18:23:33.800Z,93.04
2023-06-30T18:27:16.492Z,95.34
2023-06-30T18:30:59.165Z,95.34
2023-06-30T18:34:43.521Z,95.14
2023-06-30T18:38:27.576Z,95.58
2023-06-30T18:42:13.694Z,95.13
2023-06-30T18:45:57.042Z,94.01
2023-06-30T18:49:39.747Z,94.46
2023-06-30T18:53:24.248Z,93.34
2023-06-30T18:57:08.725Z,92.99
2023-06-30T19:00:51.438Z,93.52
2023-06-30T19:04:34.248Z,94.82
2023-06-30T19:08:17.064Z,95.62
2023-06-30T19:12:00.035Z,93.12
2023-06-30T19:15:46.246Z,92.31
2023-06-30T19:19:34.825Z,92.54
2023-06-30T19:23:18.757Z,93.85
2023-06-30T19:27:03.363Z,94.62
2023-06-30T19:30:47.765Z,95.01
2023-06-30T19:34:30.489Z,93.78
2023-06-30T19:38:13.303Z,91.64
2023-06-30T19:41:57.566Z,92.92
2023-06-30T19:45:43.168Z,93.52
2023-06-30T19:49:27.246Z,96.14
2023-06-30T19:53:10.022Z,97.78
2023-06-30T19:56:54.436Z,98.42
2023-06-30T20:00:37.221Z,100.00
2023-06-30T20:04:19.988Z,98.94
2023-06-30T20:08:04.384Z,98.48
2023-06-30T20:11:47.127Z,97.86
2023-06-30T20:15:29.918Z,97.93
2023-06-30T20:19:12.599Z,97.34
2023-06-30T20:22:55.398Z,96.53
2023-06-30T20:26:39.674Z,98.62
2023-06-30T20:30:22.525Z,97.36
2023-06-30T20:34:05.257Z,98.51
2023-06-30T20:37:48.075Z,99.26
2023-06-30T20:41:31.075Z,100.00
2023-06-30T20:45:15.286Z,100.00
2023-06-30T20:48:57.996Z,100.00
2023-06-30T20:52:43.144Z,99.53
2023-06-30T20:56:25.827Z,100.00
2023-06-30T21:00:09.998Z,100.00
2023-06-30T21:03:55.080Z,100.00
2023-06-30T21:07:37.846Z,100.00
2023-06-30T21:11:20.512Z,100.00
2023-06-30T21:15:03.590Z,100.00
2023-06-30T21:18:46.254Z,97.98
2023-06-30T21:22:30.346Z,98.54
2023-06-30T21:26:13.345Z,100.00
2023-06-30T21:29:56.097Z,100.00
2023-06-30T21:33:38.854Z,100.00
2023-06-30T21:37:21.617Z,100.00
2023-06-30T21:41:05.805Z,100.00
2023-06-30T21:44:48.517Z,100.00
2023-06-30T21:48:31.352Z,100.00
2023-06-30T21:52:14.096Z,100.00
2023-06-30T21:55:58.085Z,100.00
2023-06-30T21:59:42.252Z,100.00
2023-06-30T22:03:25.250Z,100.00
2023-06-30T22:07:08.035Z,100.00
2023-06-30T22:10:50.929Z,98.55
2023-06-30T22:14:33.762Z,98.64
2023-06-30T22:18:17.882Z,99.58
2023-06-30T22:22:00.674Z,100.00
2023-06-30T22:25:43.428Z,100.00
2023-06-30T22:29:26.223Z,100.00
2023-06-30T22:33:09.231Z,100.00
2023-06-30T22:36:53.322Z,100.00
2023-06-30T22:40:36.000Z,100.00
2023-06-30T22:44:18.725Z,100.00
2023-06-30T22:48:01.485Z,100.00
2023-06-30T22:51:44.241Z,100.00
2023-06-30T22:55:28.352Z,100.00
2023-06-30T22:59:14.124Z,99.69
2023-06-30T23:03:00.523Z,99.26
2023-06-30T23:06:43.602Z,97.10
2023-06-30T23:10:27.794Z,97.91
2023-06-30T23:14:10.558Z,96.94
2023-06-30T23:17:53.461Z,97.20
2023-06-30T23:21:37.211Z,96.57
2023-06-30T23:25:22.049Z,97.04
2023-06-30T23:29:07.129Z,98.16
2023-06-30T23:32:49.894Z,100.00
2023-06-30T23:36:36.365Z,100.00
2023-06-30T23:40:19.236Z,100.00
2023-06-30T23:44:02.441Z,100.00
2023-06-30T23:47:47.156Z,100.00
2023-06-30T23:51:29.926Z,100.00
2023-06-30T23:55:13.016Z,100.00
2023-06-30T23:58:55.816Z,100.00
